createdAt,value
2023-04-26T00:00:36.506Z,70.13
2023-04-26T00:03:04.472Z,70.51
2023-04-26T00:05:31.668Z,70.40
2023-04-26T00:07:59.424Z,70.50
2023-04-26T00:10:26.318Z,70.52
2023-04-26T00:12:53.101Z,70.90
2023-04-26T00:15:19.941Z,70.71
2023-04-26T00:17:47.201Z,71.17
2023-04-26T00:20:14.193Z,70.93
2023-04-26T00:22:41.051Z,71.21
2023-04-26T00:25:08.591Z,70.78
2023-04-26T00:27:35.480Z,71.62
2023-04-26T00:30:02.300Z,72.17
2023-04-26T00:32:30.971Z,72.27
2023-04-26T00:34:57.813Z,71.32
2023-04-26T00:37:24.929Z,71.28
2023-04-26T00:39:51.869Z,71.02
2023-04-26T00:42:19.454Z,70.98
2023-04-26T00:44:46.426Z,70.26
2023-04-26T00:47:13.682Z,70.63
2023-04-26T00:49:41.232Z,70.84
2023-04-26T00:52:09.237Z,70.88
2023-04-26T00:54:36.121Z,71.04
2023-04-26T00:57:03.575Z,71.35
2023-04-26T00:59:30.541Z,70.92
2023-04-26T01:01:57.714Z,71.19
2023-04-26T01:04:27.300Z,71.01
2023-04-26T01:06:55.237Z,71.09
2023-04-26T01:09:22.380Z,70.96
2023-04-26T01:11:50.334Z,71.67
2023-04-26T01:14:17.690Z,72.47
2023-04-26T01:16:46.881Z,71.95
2023-04-26T01:19:13.950Z,72.00
2023-04-26T01:21:41.553Z,72.12
2023-04-26T01:24:13.432Z,71.73
2023-04-26T01:26:45.675Z,71.49
2023-04-26T01:29:24.292Z,71.17
2023-04-26T01:31:51.179Z,71.37
2023-04-26T01:34:18.021Z,71.11
2023-04-26T01:36:44.824Z,71.13
2023-04-26T01:39:11.826Z,71.49
2023-04-26T01:41:38.708Z,71.69
2023-04-26T01:44:05.729Z,71.67
2023-04-26T01:46:32.675Z,72.07
2023-04-26T01:48:59.535Z,72.12
2023-04-26T01:51:27.154Z,72.76
2023-04-26T01:53:54.078Z,72.21
2023-04-26T01:56:23.653Z,72.00
2023-04-26T01:58:50.800Z,71.69
2023-04-26T02:01:17.886Z,71.78
2023-04-26T02:03:44.736Z,71.70
2023-04-26T02:06:11.583Z,71.72
2023-04-26T02:08:38.412Z,71.98
2023-04-26T02:11:05.228Z,71.44
2023-04-26T02:13:32.088Z,71.15
2023-04-26T02:15:59.468Z,71.47
2023-04-26T02:18:26.762Z,71.50
2023-04-26T02:20:53.565Z,71.42
2023-04-26T02:23:20.376Z,71.97
2023-04-26T02:25:48.766Z,71.49
2023-04-26T02:28:16.315Z,71.34
2023-04-26T02:30:43.381Z,71.71
2023-04-26T02:33:10.514Z,72.02
2023-04-26T02:35:37.563Z,71.74
2023-04-26T02:38:04.773Z,71.79
2023-04-26T02:40:31.822Z,71.57
2023-04-26T02:42:58.680Z,71.86
2023-04-26T02:45:25.695Z,71.57
2023-04-26T02:47:52.655Z,71.50
2023-04-26T02:50:19.571Z,71.46
2023-04-26T02:52:46.430Z,71.58
2023-04-26T02:55:13.475Z,71.34
2023-04-26T02:57:40.303Z,71.16
2023-04-26T03:00:08.179Z,71.38
2023-04-26T03:02:35.194Z,71.45
2023-04-26T03:05:02.550Z,71.46
2023-04-26T03:07:29.412Z,71.14
2023-04-26T03:09:56.448Z,71.38
2023-04-26T03:12:23.243Z,71.17
2023-04-26T03:14:50.053Z,71.42
2023-04-26T03:17:16.844Z,71.25
2023-04-26T03:19:43.675Z,71.57
2023-04-26T03:22:12.359Z,71.81
2023-04-26T03:24:39.227Z,71.72
2023-04-26T03:27:06.087Z,71.73
2023-04-26T03:29:32.976Z,71.90
2023-04-26T03:31:59.872Z,71.95
2023-04-26T03:34:27.438Z,71.90
2023-04-26T03:36:54.289Z,71.76
2023-04-26T03:39:21.148Z,71.93
2023-04-26T03:41:48.798Z,72.01
2023-04-26T03:44:15.825Z,71.78
2023-04-26T03:46:43.326Z,71.79
2023-04-26T03:49:10.251Z,71.67
2023-04-26T03:51:37.081Z,71.82
2023-04-26T03:54:04.201Z,72.18
2023-04-26T03:56:31.412Z,72.07
2023-04-26T03:58:58.298Z,72.00
2023-04-26T04:01:25.763Z,72.44
2023-04-26T04:03:52.772Z,72.06
2023-04-26T04:06:19.766Z,72.51
2023-04-26T04:08:46.570Z,72.60
2023-04-26T04:11:13.710Z,72.23
2023-04-26T04:13:40.569Z,72.29
2023-04-26T04:16:10.079Z,72.45
2023-04-26T04:18:37.247Z,72.19
2023-04-26T04:21:04.143Z,72.78
2023-04-26T04:23:31.115Z,72.36
2023-04-26T04:25:58.274Z,72.81
2023-04-26T04:28:25.122Z,72.40
2023-04-26T04:30:51.958Z,72.71
2023-04-26T04:33:19.158Z,72.61
2023-04-26T04:35:45.999Z,72.71
2023-04-26T04:38:13.195Z,72.64
2023-04-26T04:40:40.002Z,72.57
2023-04-26T04:43:06.806Z,72.77
2023-04-26T04:45:33.664Z,72.43
2023-04-26T04:48:00.477Z,72.06
2023-04-26T04:50:28.147Z,72.80
2023-04-26T04:52:54.994Z,72.66
2023-04-26T04:55:21.964Z,72.73
2023-04-26T04:57:48.796Z,72.71
2023-04-26T05:00:16.548Z,72.28
2023-04-26T05:02:43.498Z,72.56
2023-04-26T05:05:11.229Z,73.33
2023-04-26T05:07:38.327Z,72.86
2023-04-26T05:10:05.652Z,72.25
2023-04-26T05:12:33.450Z,72.42
2023-04-26T05:15:00.312Z,72.52
2023-04-26T05:17:27.292Z,71.34
2023-04-26T05:19:54.188Z,71.93
2023-04-26T05:22:22.246Z,71.41
2023-04-26T05:24:49.463Z,71.36
2023-04-26T05:27:16.489Z,70.30
2023-04-26T05:29:43.350Z,70.60
2023-04-26T05:32:10.411Z,70.45
2023-04-26T05:34:38.588Z,70.84
2023-04-26T05:37:05.424Z,70.92
2023-04-26T05:39:32.266Z,70.12
2023-04-26T05:41:59.086Z,68.32
2023-04-26T05:44:25.939Z,69.41
2023-04-26T05:46:52.798Z,69.09
2023-04-26T05:49:19.571Z,68.42
2023-04-26T05:51:46.426Z,67.66
2023-04-26T05:54:13.323Z,67.93
2023-04-26T05:56:40.092Z,67.48
2023-04-26T05:59:06.970Z,67.67
2023-04-26T06:01:33.766Z,64.75
2023-04-26T06:04:01.581Z,65.38
2023-04-26T06:06:28.909Z,64.15
2023-04-26T06:08:55.797Z,64.33
2023-04-26T06:11:22.859Z,63.79
2023-04-26T06:13:49.715Z,60.12
2023-04-26T06:16:17.141Z,60.85
2023-04-26T06:18:44.376Z,55.84
2023-04-26T06:21:11.278Z,57.96
2023-04-26T06:23:38.107Z,58.04
2023-04-26T06:26:05.072Z,53.71
2023-04-26T06:28:32.214Z,53.63
2023-04-26T06:30:59.100Z,54.54
2023-04-26T06:33:26.044Z,54.39
2023-04-26T06:35:52.879Z,51.66
2023-04-26T06:38:19.812Z,52.25
2023-04-26T06:40:46.688Z,51.59
2023-04-26T06:43:13.578Z,49.08
2023-04-26T06:45:41.494Z,49.50
2023-04-26T06:48:09.804Z,50.51
2023-04-26T06:50:40.037Z,48.08
2023-04-26T06:53:07.362Z,49.16
2023-04-26T06:55:34.998Z,48.19
2023-04-26T06:58:02.075Z,47.59
2023-04-26T07:00:30.039Z,48.93
2023-04-26T07:02:57.241Z,50.14
2023-04-26T07:05:24.270Z,50.52
2023-04-26T07:07:51.327Z,49.70
2023-04-26T07:10:18.407Z,49.82
2023-04-26T07:12:45.353Z,51.43
2023-04-26T07:15:12.378Z,50.27
2023-04-26T07:17:39.355Z,50.83
2023-04-26T07:20:07.190Z,51.04
2023-04-26T07:22:34.050Z,50.33
2023-04-26T07:25:00.944Z,48.72
2023-04-26T07:27:27.733Z,51.17
2023-04-26T07:29:56.274Z,47.66
2023-04-26T07:32:23.355Z,50.52
2023-04-26T07:34:50.414Z,48.40
2023-04-26T07:37:17.244Z,50.49
2023-04-26T07:39:44.140Z,49.99
2023-04-26T07:42:11.045Z,49.02
2023-04-26T07:44:37.911Z,49.07
2023-04-26T07:47:04.817Z,49.09
2023-04-26T07:49:31.711Z,49.22
2023-04-26T07:52:01.957Z,48.80
2023-04-26T07:54:28.892Z,46.71
2023-04-26T07:56:55.830Z,49.16
2023-04-26T07:59:23.762Z,47.42
2023-04-26T08:01:50.616Z,47.38
2023-04-26T08:04:32.929Z,47.51
2023-04-26T08:07:01.910Z,48.24
2023-04-26T08:09:30.736Z,47.36
2023-04-26T08:11:58.077Z,46.96
2023-04-26T08:14:25.260Z,47.67
2023-04-26T08:16:52.220Z,47.50
2023-04-26T08:19:19.125Z,46.84
2023-04-26T08:21:46.175Z,45.56
2023-04-26T08:24:13.373Z,46.58
2023-04-26T08:26:41.181Z,47.11
2023-04-26T08:29:08.063Z,45.19
2023-04-26T08:31:36.125Z,47.15
2023-04-26T08:34:02.980Z,47.25
2023-04-26T08:36:29.873Z,47.58
2023-04-26T08:38:57.692Z,48.69
2023-04-26T08:41:25.930Z,48.41
2023-04-26T08:43:54.351Z,50.38
2023-04-26T08:46:22.395Z,49.40
2023-04-26T08:49:04.570Z,50.39
2023-04-26T08:51:33.581Z,49.04
2023-04-26T08:54:03.440Z,48.27
2023-04-26T08:56:32.869Z,47.94
2023-04-26T08:59:00.912Z,49.10
2023-04-26T09:01:30.232Z,50.23
2023-04-26T09:03:58.030Z,50.10
2023-04-26T09:06:27.427Z,51.35
2023-04-26T09:08:56.322Z,49.09
2023-04-26T09:11:23.718Z,48.51
2023-04-26T09:13:50.705Z,48.40
2023-04-26T09:16:17.642Z,48.39
2023-04-26T09:18:57.148Z,49.19
2023-04-26T09:21:24.146Z,49.39
2023-04-26T09:24:04.765Z,48.81
2023-04-26T09:26:31.725Z,47.34
2023-04-26T09:29:19.121Z,49.65
2023-04-26T09:31:50.147Z,48.20
2023-04-26T09:34:17.225Z,49.05
2023-04-26T09:37:02.157Z,47.45
2023-04-26T09:39:38.664Z,50.15
2023-04-26T09:42:11.839Z,48.35
2023-04-26T09:44:38.832Z,48.08
2023-04-26T09:47:08.816Z,49.56
2023-04-26T09:49:48.899Z,47.42
2023-04-26T09:52:17.121Z,45.44
2023-04-26T09:54:46.716Z,43.71
2023-04-26T09:57:16.346Z,42.66
2023-04-26T09:59:46.213Z,43.93
2023-04-26T10:02:26.320Z,45.38
2023-04-26T10:04:56.650Z,46.26
2023-04-26T10:07:25.520Z,44.67
2023-04-26T10:09:52.992Z,42.15
2023-04-26T10:12:20.712Z,44.19
2023-04-26T10:14:49.473Z,45.45
2023-04-26T10:17:19.085Z,45.43
2023-04-26T10:19:53.237Z,44.96
2023-04-26T10:22:27.667Z,44.73
2023-04-26T10:24:56.009Z,46.74
2023-04-26T10:27:45.063Z,45.19
2023-04-26T10:30:19.795Z,42.53
2023-04-26T10:32:55.485Z,42.38
2023-04-26T10:35:33.225Z,42.83
2023-04-26T10:37:59.931Z,42.95
2023-04-26T10:40:33.475Z,42.00
2023-04-26T10:43:27.813Z,40.77
2023-04-26T10:45:56.849Z,39.68
2023-04-26T10:48:31.843Z,41.40
2023-04-26T10:51:01.817Z,41.75
2023-04-26T10:53:45.466Z,39.04
2023-04-26T10:56:27.838Z,40.60
2023-04-26T10:59:36.181Z,38.58
2023-04-26T11:02:11.069Z,39.59
2023-04-26T11:04:52.436Z,41.11
2023-04-26T11:07:40.168Z,41.54
2023-04-26T11:10:22.661Z,43.24
2023-04-26T11:13:03.859Z,39.81
2023-04-26T11:15:35.352Z,40.02
2023-04-26T11:18:05.491Z,39.94
2023-04-26T11:20:33.274Z,40.09
2023-04-26T11:23:00.950Z,39.50
2023-04-26T11:25:29.013Z,39.77
2023-04-26T11:28:03.409Z,37.97
2023-04-26T11:30:33.513Z,39.97
2023-04-26T11:33:02.045Z,38.40
2023-04-26T11:35:29.887Z,39.51
2023-04-26T11:38:00.715Z,41.38
2023-04-26T11:40:32.919Z,41.02
2023-04-26T11:43:07.031Z,40.13
2023-04-26T11:45:36.507Z,39.55
2023-04-26T11:48:06.275Z,39.46
2023-04-26T11:50:34.577Z,38.77
2023-04-26T11:53:04.238Z,39.77
2023-04-26T11:55:33.187Z,38.04
2023-04-26T11:58:01.335Z,37.40
2023-04-26T12:00:28.233Z,37.01
2023-04-26T12:02:57.329Z,36.00
2023-04-26T12:05:27.238Z,35.12
2023-04-26T12:07:56.713Z,36.23
2023-04-26T12:10:28.202Z,35.75
2023-04-26T12:12:56.950Z,37.15
2023-04-26T12:15:32.398Z,37.13
2023-04-26T12:18:10.037Z,37.57
2023-04-26T12:20:41.426Z,37.15
2023-04-26T12:23:11.401Z,36.71
2023-04-26T12:25:40.935Z,36.43
2023-04-26T12:28:13.760Z,37.38
2023-04-26T12:30:41.332Z,35.25
2023-04-26T12:33:17.026Z,36.27
2023-04-26T12:35:44.723Z,35.77
2023-04-26T12:38:12.165Z,35.04
2023-04-26T12:40:39.688Z,32.88
2023-04-26T12:43:06.718Z,31.12
2023-04-26T12:45:33.578Z,32.38
2023-04-26T12:48:00.576Z,31.77
2023-04-26T12:50:27.704Z,32.76
2023-04-26T12:52:54.524Z,30.50
2023-04-26T12:55:21.822Z,32.04
2023-04-26T12:57:48.636Z,31.29
2023-04-26T13:00:17.714Z,33.75
2023-04-26T13:02:44.769Z,33.95
2023-04-26T13:05:13.315Z,33.19
2023-04-26T13:07:43.235Z,33.42
2023-04-26T13:10:13.005Z,33.82
2023-04-26T13:12:40.564Z,32.95
2023-04-26T13:15:08.766Z,33.27
2023-04-26T13:17:37.476Z,35.82
2023-04-26T13:20:08.030Z,34.47
2023-04-26T13:22:35.138Z,34.70
2023-04-26T13:25:02.137Z,34.09
2023-04-26T13:27:31.379Z,34.92
2023-04-26T13:29:58.845Z,34.94
2023-04-26T13:32:26.069Z,34.94
2023-04-26T13:34:53.383Z,34.73
2023-04-26T13:37:21.153Z,36.06
2023-04-26T13:39:48.521Z,34.57
2023-04-26T13:42:16.398Z,33.52
2023-04-26T13:44:43.669Z,34.09
2023-04-26T13:47:10.936Z,34.56
2023-04-26T13:49:41.333Z,33.27
2023-04-26T13:52:08.203Z,33.12
2023-04-26T13:54:36.582Z,30.80
2023-04-26T13:57:04.128Z,30.23
2023-04-26T13:59:30.984Z,31.46
2023-04-26T14:01:59.218Z,32.05
2023-04-26T14:04:27.185Z,31.70
2023-04-26T14:06:54.343Z,30.70
2023-04-26T14:09:21.207Z,30.06
2023-04-26T14:11:57.086Z,32.36
2023-04-26T14:14:27.616Z,32.68
2023-04-26T14:16:54.455Z,33.62
2023-04-26T14:19:21.404Z,34.64
2023-04-26T14:21:48.287Z,36.98
2023-04-26T14:24:15.178Z,35.54
2023-04-26T14:26:42.104Z,35.04
2023-04-26T14:29:09.021Z,33.65
2023-04-26T14:31:36.347Z,34.20
2023-04-26T14:34:03.238Z,32.68
2023-04-26T14:36:30.319Z,30.64
2023-04-26T14:38:57.144Z,29.74
2023-04-26T14:41:23.970Z,29.90
2023-04-26T14:43:51.103Z,29.99
2023-04-26T14:46:17.947Z,29.55
2023-04-26T14:48:45.031Z,29.58
2023-04-26T14:51:11.859Z,28.64
2023-04-26T14:53:39.171Z,27.98
2023-04-26T14:56:07.556Z,27.82
2023-04-26T14:58:34.692Z,27.41
2023-04-26T15:01:02.381Z,28.13
2023-04-26T15:03:29.803Z,27.28
2023-04-26T15:05:57.024Z,26.27
2023-04-26T15:08:23.924Z,26.64
2023-04-26T15:10:51.403Z,27.01
2023-04-26T15:13:18.593Z,28.12
2023-04-26T15:15:45.727Z,29.02
2023-04-26T15:18:12.746Z,29.25
2023-04-26T15:20:41.228Z,29.50
2023-04-26T15:23:08.465Z,30.20
2023-04-26T15:25:37.185Z,30.93
2023-04-26T15:28:04.531Z,30.91
2023-04-26T15:30:31.674Z,32.43
2023-04-26T15:32:58.670Z,32.68
2023-04-26T15:35:25.773Z,30.36
2023-04-26T15:37:55.196Z,31.09
2023-04-26T15:40:22.561Z,31.89
2023-04-26T15:42:49.977Z,32.70
2023-04-26T15:45:16.922Z,34.24
2023-04-26T15:47:43.816Z,35.18
2023-04-26T15:50:11.280Z,36.79
2023-04-26T15:52:39.521Z,37.05
2023-04-26T15:55:07.377Z,37.40
2023-04-26T15:57:34.694Z,37.69
2023-04-26T16:00:02.061Z,36.35
2023-04-26T16:02:29.074Z,36.63
2023-04-26T16:04:56.390Z,36.07
2023-04-26T16:07:23.540Z,37.44
2023-04-26T16:09:50.432Z,36.10
2023-04-26T16:12:17.241Z,37.28
2023-04-26T16:14:44.099Z,36.55
2023-04-26T16:17:10.926Z,37.50
2023-04-26T16:19:37.869Z,38.32
2023-04-26T16:22:04.697Z,37.63
2023-04-26T16:24:31.693Z,37.77
2023-04-26T16:26:58.668Z,37.84
2023-04-26T16:29:25.614Z,37.03
2023-04-26T16:31:52.935Z,37.57
2023-04-26T16:34:20.096Z,37.99
2023-04-26T16:36:46.955Z,38.82
2023-04-26T16:39:15.789Z,37.76
2023-04-26T16:41:43.282Z,38.74
2023-04-26T16:44:10.274Z,38.37
2023-04-26T16:46:37.745Z,38.81
2023-04-26T16:49:09.490Z,38.94
2023-04-26T16:51:37.936Z,40.75
2023-04-26T16:54:05.063Z,41.36
2023-04-26T16:56:32.356Z,41.83
2023-04-26T16:58:59.436Z,41.64
2023-04-26T17:01:26.884Z,42.15
2023-04-26T17:03:54.384Z,42.14
2023-04-26T17:06:21.522Z,42.86
2023-04-26T17:08:48.480Z,43.13
2023-04-26T17:11:16.778Z,43.30
2023-04-26T17:13:43.918Z,43.20
2023-04-26T17:16:11.116Z,44.02
2023-04-26T17:18:38.568Z,44.25
2023-04-26T17:21:06.058Z,44.59
2023-04-26T17:23:33.700Z,45.25
2023-04-26T17:26:01.881Z,45.74
2023-04-26T17:28:29.065Z,46.72
2023-04-26T17:30:55.998Z,47.01
2023-04-26T17:33:23.523Z,47.36
2023-04-26T17:35:50.365Z,47.29
2023-04-26T17:38:17.287Z,47.54
2023-04-26T17:40:44.102Z,47.89
2023-04-26T17:43:11.381Z,48.25
2023-04-26T17:45:38.376Z,48.69
2023-04-26T17:48:05.896Z,48.95
2023-04-26T17:50:32.808Z,49.38
2023-04-26T17:52:59.695Z,49.07
2023-04-26T17:55:26.895Z,49.17
2023-04-26T17:57:53.729Z,50.04
2023-04-26T18:00:20.728Z,50.39
2023-04-26T18:02:48.585Z,51.19
2023-04-26T18:05:16.385Z,51.52
2023-04-26T18:07:43.239Z,52.12
2023-04-26T18:10:10.444Z,53.30
2023-04-26T18:12:38.032Z,54.15
2023-04-26T18:15:05.571Z,54.16
2023-04-26T18:17:32.567Z,55.86
2023-04-26T18:19:59.483Z,57.39
2023-04-26T18:22:26.837Z,57.68
2023-04-26T18:24:53.698Z,57.94
2023-04-26T18:27:20.615Z,58.09
2023-04-26T18:29:49.020Z,58.71
2023-04-26T18:32:16.162Z,59.48
2023-04-26T18:34:44.065Z,59.93
2023-04-26T18:37:11.058Z,59.66
2023-04-26T18:39:37.887Z,59.11
2023-04-26T18:42:04.959Z,58.76
2023-04-26T18:44:32.090Z,58.98
2023-04-26T18:46:59.373Z,59.02
2023-04-26T18:49:28.885Z,59.82
2023-04-26T18:51:57.225Z,60.01
2023-04-26T18:54:24.202Z,60.05
2023-04-26T18:56:51.046Z,59.48
2023-04-26T18:59:17.896Z,59.61
2023-04-26T19:01:44.785Z,59.52
2023-04-26T19:04:12.069Z,59.76
2023-04-26T19:06:41.559Z,58.98
2023-04-26T19:09:11.627Z,58.39
2023-04-26T19:11:38.858Z,57.77
2023-04-26T19:14:05.774Z,58.08
2023-04-26T19:16:32.715Z,58.32
2023-04-26T19:18:59.561Z,58.82
2023-04-26T19:21:26.684Z,59.00
2023-04-26T19:23:53.526Z,58.82
2023-04-26T19:26:20.495Z,59.26
2023-04-26T19:28:47.346Z,59.75
2023-04-26T19:31:14.259Z,60.34
2023-04-26T19:33:41.238Z,60.18
2023-04-26T19:36:10.541Z,60.20
2023-04-26T19:38:37.407Z,60.72
2023-04-26T19:41:04.256Z,61.20
2023-04-26T19:43:31.207Z,60.82
2023-04-26T19:45:58.107Z,61.21
2023-04-26T19:48:26.329Z,61.24
2023-04-26T19:50:53.141Z,61.37
2023-04-26T19:53:19.964Z,61.35
2023-04-26T19:55:46.744Z,61.94
2023-04-26T19:58:13.793Z,62.06
2023-04-26T20:00:41.023Z,62.17
2023-04-26T20:03:08.753Z,62.26
2023-04-26T20:05:35.818Z,62.34
2023-04-26T20:08:02.823Z,62.38
2023-04-26T20:10:34.310Z,62.58
2023-04-26T20:13:01.435Z,62.69
2023-04-26T20:15:29.094Z,62.71
2023-04-26T20:17:57.576Z,63.04
2023-04-26T20:20:24.560Z,63.06
2023-04-26T20:22:51.457Z,63.30
2023-04-26T20:25:19.813Z,63.40
2023-04-26T20:27:47.909Z,63.26
2023-04-26T20:30:15.282Z,63.32
2023-04-26T20:32:42.795Z,63.28
2023-04-26T20:35:10.064Z,63.45
2023-04-26T20:37:36.897Z,63.85
2023-04-26T20:40:04.777Z,63.83
2023-04-26T20:42:31.657Z,63.88
2023-04-26T20:44:59.869Z,63.80
2023-04-26T20:47:28.813Z,63.68
2023-04-26T20:49:55.750Z,63.61
2023-04-26T20:52:22.583Z,63.72
2023-04-26T20:54:49.409Z,63.76
2023-04-26T20:57:16.715Z,64.32
2023-04-26T20:59:43.639Z,64.19
2023-04-26T21:02:11.489Z,64.33
2023-04-26T21:04:41.684Z,64.06
2023-04-26T21:07:09.969Z,64.46
2023-04-26T21:09:37.191Z,64.67
2023-04-26T21:12:04.889Z,64.58
2023-04-26T21:14:31.722Z,64.85
2023-04-26T21:16:58.687Z,64.92
2023-04-26T21:19:25.621Z,65.13
2023-04-26T21:21:52.442Z,65.25
2023-04-26T21:24:19.287Z,65.02
2023-04-26T21:26:46.107Z,65.68
2023-04-26T21:29:12.993Z,65.13
2023-04-26T21:31:40.006Z,65.19
2023-04-26T21:34:06.938Z,65.03
2023-04-26T21:36:33.924Z,64.71
2023-04-26T21:39:01.283Z,64.89
2023-04-26T21:41:28.309Z,64.43
2023-04-26T21:43:56.017Z,64.41
2023-04-26T21:46:23.033Z,64.14
2023-04-26T21:48:49.973Z,63.99
2023-04-26T21:51:17.153Z,64.36
2023-04-26T21:53:44.090Z,64.42
2023-04-26T21:56:11.115Z,64.19
2023-04-26T21:58:38.041Z,64.24
2023-04-26T22:01:13.470Z,64.60
2023-04-26T22:03:41.218Z,64.81
2023-04-26T22:06:09.385Z,64.55
2023-04-26T22:08:36.561Z,64.19
2023-04-26T22:11:03.698Z,63.10
2023-04-26T22:13:31.491Z,61.57
2023-04-26T22:15:58.469Z,61.83
2023-04-26T22:18:26.312Z,60.93
2023-04-26T22:20:53.645Z,60.91
2023-04-26T22:23:20.833Z,61.67
2023-04-26T22:25:47.693Z,61.74
2023-04-26T22:28:15.585Z,62.28
2023-04-26T22:30:42.494Z,62.57
2023-04-26T22:33:10.914Z,62.00
2023-04-26T22:35:37.951Z,62.43
2023-04-26T22:38:04.785Z,63.45
2023-04-26T22:40:32.583Z,63.41
2023-04-26T22:42:59.444Z,63.72
2023-04-26T22:45:26.324Z,63.83
2023-04-26T22:47:53.354Z,63.73
2023-04-26T22:50:20.886Z,63.95
2023-04-26T22:52:47.860Z,63.54
2023-04-26T22:55:14.818Z,63.53
2023-04-26T22:57:41.743Z,63.80
2023-04-26T23:00:10.159Z,64.47
2023-04-26T23:02:37.214Z,63.52
2023-04-26T23:05:05.269Z,64.02
2023-04-26T23:07:33.735Z,64.60
2023-04-26T23:10:00.672Z,63.88
2023-04-26T23:12:27.753Z,64.06
2023-04-26T23:14:58.765Z,64.35
2023-04-26T23:17:26.659Z,64.60
2023-04-26T23:19:54.477Z,64.84
2023-04-26T23:22:21.373Z,65.22
2023-04-26T23:24:48.228Z,65.63
2023-04-26T23:27:15.165Z,64.97
2023-04-26T23:29:42.003Z,65.52
2023-04-26T23:32:08.841Z,65.18
2023-04-26T23:34:35.888Z,65.40
2023-04-26T23:37:07.464Z,64.41
2023-04-26T23:39:35.782Z,63.91
2023-04-26T23:42:03.721Z,63.57
2023-04-26T23:44:30.565Z,63.38
2023-04-26T23:46:57.464Z,63.47
2023-04-26T23:49:24.448Z,63.47
2023-04-26T23:51:51.459Z,63.60
2023-04-26T23:54:18.340Z,63.55
2023-04-26T23:56:45.464Z,63.61
2023-04-26T23:59:13.213Z,63.68
